Data for 03/31/2017

Time Sea-Level Adjusted Pressure Absolute Pressure Temperature Relative Humidity Dew Point   
(mb) (inHg) (mb) (inHg) (C) (F) (%) (C) (F)
00:05 1014 29.94 843 24.89 4.8 40.7 83 2.2 36
00:10 1014 29.94 843 24.89 4.8 40.7 83 2.2 35.9
00:15 1014 29.94 843 24.89 4.8 40.6 84 2.3 36.1
00:20 1014 29.94 843 24.89 4.7 40.5 84 2.3 36.1
00:25 1014 29.94 843 24.89 4.7 40.5 83 2.1 35.8
00:30 1014 29.94 843 24.89 4.7 40.5 83 2.1 35.8
00:35 1014 29.94 843 24.89 4.7 40.5 83 2 35.6
00:40 1014 29.94 844 24.92 4.7 40.5 82 1.8 35.3
00:45 1014 29.94 844 24.92 4.7 40.5 81 1.8 35.3
00:50 1014 29.94 844 24.92 4.8 40.6 82 1.9 35.4
00:55 1014 29.94 844 24.92 4.8 40.6 81 1.8 35.3
01:00 1014 29.94 844 24.92 4.8 40.7 80 1.8 35.2
01:05 1015 29.97 844 24.92 4.9 40.8 80 1.7 35.1
01:10 1015 29.97 844 24.92 4.9 40.9 79 1.6 34.9
01:15 1015 29.97 844 24.92 5 41 79 1.7 35
01:20 1015 29.97 844 24.92 5 41 78 1.5 34.7
01:25 1015 29.97 844 24.92 5 41 78 1.5 34.7
01:30 1015 29.97 844 24.92 5.1 41.1 78 1.6 34.9
01:35 1015 29.97 844 24.92 5.1 41.1 78 1.5 34.7
01:40 1015 29.97 844 24.92 5.1 41.1 77 1.4 34.5
01:45 1015 29.97 844 24.92 5.1 41.2 78 1.5 34.7
01:50 1015 29.97 844 24.92 5.1 41.1 78 1.5 34.7
01:55 1015 29.97 844 24.92 5.1 41.1 78 1.5 34.7
02:00 1015 29.97 844 24.92 5.1 41.1 77 1.4 34.5
02:05 1015 29.97 844 24.92 5.1 41.2 79 1.8 35.2
02:10 1015 29.97 844 24.92 5.1 41.2 80 1.9 35.4
02:15 1015 29.97 844 24.92 5.1 41.1 80 1.9 35.4
02:20 1015 29.97 844 24.92 5 41 81 2 35.6
02:25 1015 29.97 844 24.92 5 41 82 2.1 35.8
02:30 1015 29.97 844 24.92 4.9 40.9 83 2.2 36
02:35 1015 29.97 844 24.92 4.9 40.9 84 2.4 36.3
02:40 1015 29.97 845 24.95 4.8 40.7 85 2.5 36.5
02:45 1015 29.97 845 24.95 4.6 40.3 86 2.5 36.6
02:50 1015 29.97 845 24.95 4.5 40.1 86 2.3 36.1
02:55 1015 29.97 845 24.95 4.5 40.1 86 2.4 36.3
03:00 1015 29.97 845 24.95 4.5 40.1 86 2.4 36.3
03:05 1015 29.97 845 24.95 4.4 39.9 85 2.2 35.9
03:10 1015 29.97 845 24.95 4.4 39.9 85 2.2 35.9
03:15 1015 29.97 845 24.95 4.4 39.9 86 2.2 35.9
03:20 1015 29.97 845 24.95 4.4 40 83 1.9 35.4
03:25 1015 29.97 845 24.95 4.6 40.3 82 1.8 35.3
03:30 1015 29.97 845 24.95 4.6 40.4 83 2 35.7
03:35 1015 29.97 845 24.95 4.6 40.4 82 1.8 35.2
03:40 1016 30 845 24.95 4.7 40.4 82 1.8 35.3
03:45 1016 30 845 24.95 4.7 40.4 82 1.9 35.5
03:50 1016 30 845 24.95 4.8 40.6 82 2 35.6
03:55 1016 30 845 24.95 4.8 40.6 83 2.1 35.8
04:00 1016 30 845 24.95 4.7 40.4 82 1.9 35.4
04:05 1016 30 845 24.95 4.5 40.1 83 1.8 35.3
04:10 1016 30 845 24.95 4.4 39.9 85 2 35.6
04:15 1016 30 845 24.95 4.2 39.5 85 1.9 35.5
04:20 1016 30 845 24.95 4 39.2 86 1.8 35.3
04:25 1016 30 845 24.95 3.9 39 87 1.9 35.4
04:30 1016 30 846 24.98 3.8 38.8 86 1.7 35
04:35 1016 30 846 24.98 3.8 38.8 86 1.7 35
04:40 1016 30 846 24.98 3.7 38.6 86 1.6 34.9
04:45 1017 30.03 846 24.98 3.7 38.6 86 1.5 34.7
04:50 1017 30.03 846 24.98 3.6 38.5 85 1.4 34.5
04:55 1017 30.03 846 24.98 3.6 38.5 85 1.4 34.5
05:00 1017 30.03 846 24.98 3.6 38.5 84 1.2 34.1
05:05 1017 30.03 846 24.98 3.7 38.7 83 1.1 34
05:10 1017 30.03 846 24.98 3.8 38.8 84 1.3 34.3
05:15 1017 30.03 846 24.98 3.7 38.6 85 1.3 34.4
05:20 1017 30.03 846 24.98 3.6 38.4 85 1.2 34.2
05:25 1017 30.03 846 24.98 3.6 38.5 84 1.1 34
05:30 1017 30.03 846 24.98 3.7 38.7 84 1.3 34.3
05:35 1017 30.03 846 24.98 3.8 38.9 83 1.2 34.2
05:40 1017 30.03 846 24.98 4 39.1 83 1.4 34.5
05:45 1017 30.03 846 24.98 4 39.1 84 1.5 34.8
05:50 1017 30.03 846 24.98 3.9 39.1 84 1.5 34.7
05:55 1017 30.03 846 24.98 4 39.2 85 1.6 34.9
06:00 1017 30.03 846 24.98 3.9 39.1 85 1.6 35
06:05 1017 30.03 846 24.98 3.9 39 84 1.5 34.7
06:10 1017 30.03 846 24.98 4 39.1 84 1.5 34.7
06:15 1017 30.03 846 24.98 4 39.2 84 1.6 34.8
06:20 1017 30.03 847 25.01 3.9 39.1 85 1.6 34.9
06:25 1017 30.03 847 25.01 3.9 39.1 85 1.7 35
06:30 1018 30.06 847 25.01 3.9 39 86 1.8 35.3
06:35 1018 30.06 847 25.01 4 39.1 87 2 35.6
06:40 1018 30.06 847 25.01 3.8 38.8 88 2 35.6
06:45 1018 30.06 847 25.01 3.7 38.6 89 2.1 35.7
06:50 1018 30.06 847 25.01 3.6 38.5 90 2.1 35.7
06:55 1018 30.06 847 25.01 3.6 38.5 90 2.1 35.8
07:00 1018 30.06 847 25.01 3.5 38.4 90 2 35.7
07:05 1018 30.06 847 25.01 3.6 38.4 90 2.1 35.7
07:10 1018 30.06 847 25.01 3.6 38.4 90 2 35.7
07:15 1018 30.06 847 25.01 3.6 38.5 90 2.1 35.8
07:20 1018 30.06 847 25.01 3.7 38.7 90 2.2 36
07:25 1018 30.06 847 25.01 3.9 39 88 2 35.7
07:30 1018 30.06 847 25.01 3.9 38.9 87 1.8 35.3
07:35 1018 30.06 847 25.01 3.7 38.7 86 1.6 34.9
07:40 1018 30.06 847 25.01 3.5 38.4 87 1.5 34.7
07:45 1018 30.06 848 25.04 3.6 38.5 86 1.4 34.5
07:50 1018 30.06 848 25.04 3.5 38.4 85 1.3 34.3
07:55 1018 30.06 848 25.04 3.4 38.1 86 1.3 34.3
08:00 1019 30.09 848 25.04 3.4 38.1 86 1.3 34.3
08:05 1019 30.09 848 25.04 3.4 38.1 85 1.1 34.1
08:10 1019 30.09 848 25.04 3.4 38.1 83 0.8 33.4
08:15 1019 30.09 848 25.04 3.5 38.3 84 1.1 34
08:20 1019 30.09 848 25.04 3.4 38.2 84 1 33.9
08:25 1019 30.09 848 25.04 3.5 38.4 84 1.1 33.9
08:30 1019 30.09 848 25.04 3.5 38.4 84 1.1 33.9
08:35 1019 30.09 848 25.04 3.5 38.3 84 1 33.8
08:40 1019 30.09 848 25.04 3.4 38.2 84 1 33.8
08:45 1019 30.09 848 25.04 3.5 38.3 85 1.2 34.1
08:50 1019 30.09 848 25.04 3.5 38.4 85 1.2 34.2
08:55 1019 30.09 848 25.04 3.5 38.3 86 1.3 34.4
09:00 1019 30.09 848 25.04 3.7 38.7 85 1.4 34.5
09:05 1019 30.09 848 25.04 4 39.1 83 1.3 34.3
09:10 1019 30.09 848 25.04 4.2 39.5 80 1.1 34
09:15 1019 30.09 848 25.04 4.4 40 80 1.3 34.3
09:20 1019 30.09 848 25.04 5.1 41.1 78 1.6 34.9
09:25 1019 30.09 849 25.07 5 41.1 81 2 35.6
09:30 1019 30.09 849 25.07 4.4 40 80 1.3 34.3
09:35 1019 30.09 849 25.07 4.3 39.8 81 1.5 34.6
09:40 1019 30.09 849 25.07 4.6 40.2 79 1.2 34.1
09:45 1020 30.12 849 25.07 4.6 40.3 79 1.4 34.5
09:50 1020 30.12 849 25.07 4.8 40.6 78 1.3 34.3
09:55 1020 30.12 849 25.07 4.6 40.2 79 1.3 34.3
10:00 1020 30.12 849 25.07 4.7 40.4 79 1.4 34.5
10:05 1020 30.12 849 25.07 4.9 40.8 78 1.5 34.6
10:10 1020 30.12 849 25.07 4.5 40.1 81 1.5 34.6
10:15 1020 30.12 849 25.07 4.4 39.9 80 1.3 34.3
10:20 1020 30.12 849 25.07 4.4 40 81 1.5 34.7
10:25 1020 30.12 849 25.07 4.6 40.2 80 1.4 34.5
10:30 1020 30.12 849 25.07 4.6 40.3 81 1.6 34.9
10:35 1020 30.12 849 25.07 4.6 40.2 80 1.4 34.6
10:40 1020 30.12 849 25.07 4.5 40.2 81 1.5 34.7
10:45 1020 30.12 849 25.07 4.7 40.4 79 1.4 34.5
10:50 1020 30.12 849 25.07 4.5 40.2 79 1.3 34.3
10:55 1020 30.12 850 25.1 4.5 40.1 80 1.3 34.4
11:00 1020 30.12 850 25.1 4.8 40.6 78 1.2 34.2
11:05 1020 30.12 850 25.1 4.7 40.5 80 1.6 34.9
11:10 1020 30.12 850 25.1 4.7 40.5 81 1.7 35.1
11:15 1021 30.15 850 25.1 4.7 40.5 79 1.4 34.5
11:20 1021 30.15 850 25.1 4.7 40.5 80 1.5 34.7
11:25 1021 30.15 850 25.1 4.5 40.1 80 1.4 34.5
11:30 1021 30.15 850 25.1 4.5 40.1 80 1.3 34.4
11:35 1021 30.15 850 25.1 4.6 40.2 80 1.4 34.6
11:40 1021 30.15 850 25.1 4.5 40.2 80 1.3 34.4
11:45 1021 30.15 850 25.1 4.4 39.9 80 1.2 34.1
11:50 1021 30.15 850 25.1 4.4 39.9 80 1.2 34.1
11:55 1021 30.15 850 25.1 4.4 40 78 1 33.8
12:00 1021 30.15 850 25.1 4.4 39.9 80 1.2 34.2
12:05 1021 30.15 850 25.1 4.4 39.9 80 1.2 34.1
12:10 1021 30.15 850 25.1 4.6 40.2 79 1.3 34.4
12:15 1021 30.15 850 25.1 4.6 40.3 80 1.4 34.6
12:20 1021 30.15 850 25.1 4.8 40.6 77 1.2 34.1
12:25 1021 30.15 850 25.1 4.7 40.4 79 1.3 34.3
12:30 1021 30.15 850 25.1 4.9 40.9 78 1.5 34.7
12:35 1021 30.15 850 25.1 5.1 41.2 77 1.3 34.4
12:40 1021 30.15 850 25.1 4.8 40.7 81 1.8 35.3
12:45 1021 30.15 850 25.1 5 40.9 75 1 33.8
12:50 1021 30.15 850 25.1 5.1 41.3 76 1.3 34.3
12:55 1021 30.15 850 25.1 5.6 42 77 1.8 35.2
13:00 1021 30.15 850 25.1 5.8 42.4 73 1.4 34.5
13:05 1021 30.15 850 25.1 5.9 42.6 71 1.1 34.1
13:10 1021 30.15 850 25.1 5.9 42.7 73 1.4 34.6
13:15 1020 30.12 850 25.1 6.3 43.4 70 1.3 34.4
13:20 1020 30.12 850 25.1 6.6 43.8 68 1.1 33.9
13:25 1020 30.12 850 25.1 7 44.5 66 1.1 34.1
13:30 1020 30.12 850 25.1 7 44.6 67 1.3 34.3
13:35 1020 30.12 850 25.1 7 44.6 65 0.8 33.5
13:40 1020 30.12 850 25.1 7.1 44.7 68 1.7 35
13:45 1020 30.12 850 25.1 7.2 44.9 65 1.1 34
13:50 1020 30.12 850 25.1 6.6 43.8 67 0.9 33.7
13:55 1020 30.12 850 25.1 6.6 43.9 69 1.3 34.3
14:00 1020 30.12 850 25.1 6.8 44.3 71 2 35.5
14:05 1020 30.12 849 25.07 7.2 44.9 71 2.3 36.1
14:10 1020 30.12 850 25.1 7.4 45.4 69 2.1 35.8
14:15 1020 30.12 849 25.07 7.7 45.8 70 2.5 36.6
14:20 1020 30.12 849 25.07 8.2 46.7 61 1 33.8
14:25 1020 30.12 849 25.07 7.9 46.1 62 1.1 34.1
14:30 1020 30.12 849 25.07 8.2 46.8 60 0.9 33.6
14:35 1020 30.12 849 25.07 8 46.5 64 1.6 34.9
14:40 1020 30.12 850 25.1 7.9 46.3 65 1.7 35
14:45 1020 30.12 850 25.1 7.4 45.3 68 1.9 35.4
14:50 1020 30.12 850 25.1 7.3 45.1 65 1.3 34.3
14:55 1020 30.12 850 25.1 7.1 44.7 66 1.1 34
15:00 1020 30.12 850 25.1 7 44.6 65 0.9 33.6
15:05 1020 30.12 850 25.1 7.1 44.7 65 1 33.9
15:10 1020 30.12 850 25.1 7.2 45 64 0.9 33.7
15:15 1020 30.12 849 25.07 7.8 46 63 1.2 34.1
15:20 1020 30.12 849 25.07 7.7 45.9 64 1.4 34.5
15:25 1020 30.12 849 25.07 7.8 46 61 0.7 33.3
15:30 1020 30.12 849 25.07 8.5 47.3 56 0.2 32.4
15:35 1020 30.12 849 25.07 8.5 47.3 59 0.9 33.7
15:40 1020 30.12 849 25.07 8.3 47 60 1.1 33.9
15:45 1020 30.12 849 25.07 8.2 46.7 60 1 33.8
15:50 1020 30.12 849 25.07 8 46.3 58 0.3 32.5
15:55 1020 30.12 849 25.07 8.2 46.8 58 0.4 32.8
16:00 1020 30.12 849 25.07 8.6 47.4 55 0 32
16:05 1020 30.12 849 25.07 8.6 47.4 57 0.6 33.1
16:10 1020 30.12 849 25.07 8.6 47.4 55 -0 32
16:15 1020 30.12 849 25.07 9 48.1 55 0.4 32.7
16:20 1020 30.12 850 25.1 8.9 48 57 0.8 33.4
16:25 1020 30.12 850 25.1 8.9 48 56 0.5 33
16:30 1020 30.12 850 25.1 8.7 47.7 55 0.3 32.5
16:35 1020 30.12 850 25.1 8.5 47.3 57 0.5 33
16:40 1020 30.12 850 25.1 8.4 47.1 57 0.4 32.7
16:45 1020 30.12 850 25.1 8.8 47.8 54 0.1 32.3
16:50 1020 30.12 849 25.07 8.6 47.4 57 0.5 32.9
16:55 1020 30.12 849 25.07 8.6 47.5 55 0.1 32.1
17:00 1020 30.12 849 25.07 9.3 48.7 50 -0.5 31.1
17:05 1020 30.12 850 25.1 9.4 49 49 -0.7 30.8
17:10 1020 30.12 850 25.1 9.3 48.8 50 -0.4 31.2
17:15 1021 30.15 850 25.1 8.8 47.8 53 -0.2 31.6
17:20 1021 30.15 850 25.1 8.9 48 51 -0.7 30.7
17:25 1021 30.15 850 25.1 9.1 48.3 51 -0.5 31.1
17:30 1021 30.15 850 25.1 9.1 48.4 50 -0.7 30.7
17:35 1021 30.15 850 25.1 9.1 48.3 51 -0.6 30.9
17:40 1021 30.15 850 25.1 9.1 48.4 50 -0.7 30.8
17:45 1021 30.15 850 25.1 9 48.1 51 -0.5 31.1
17:50 1021 30.15 850 25.1 9 48.1 51 -0.5 31
17:55 1021 30.15 850 25.1 8.8 47.8 51 -0.6 30.8
18:00 1021 30.15 850 25.1 8.7 47.7 51 -0.9 30.3
18:05 1021 30.15 850 25.1 8.8 47.8 52 -0.6 30.9
18:10 1021 30.15 850 25.1 8.6 47.6 52 -0.7 30.8
18:15 1021 30.15 850 25.1 8.4 47.2 51 -1 30.2
18:20 1021 30.15 850 25.1 8.2 46.8 53 -0.8 30.5
18:25 1021 30.15 850 25.1 8.2 46.8 53 -0.7 30.8
18:30 1021 30.15 850 25.1 8.1 46.6 55 -0.4 31.2
18:35 1021 30.15 850 25.1 8.1 46.6 53 -0.8 30.5
18:40 1021 30.15 850 25.1 7.9 46.3 52 -1.3 29.7
18:45 1021 30.15 850 25.1 7.8 46 53 -1.2 29.8
18:50 1021 30.15 850 25.1 7.7 45.8 55 -0.8 30.6
18:55 1021 30.15 850 25.1 7.6 45.7 56 -0.5 31.1
19:00 1021 30.15 850 25.1 7.6 45.6 58 -0.2 31.6
19:05 1021 30.15 850 25.1 7.4 45.4 58 -0.3 31.5
19:10 1021 30.15 850 25.1 7.4 45.2 59 -0.1 31.8
19:15 1021 30.15 850 25.1 7.3 45.1 58 -0.4 31.3
19:20 1021 30.15 850 25.1 7.3 45.2 59 -0.2 31.6
19:25 1021 30.15 850 25.1 7.3 45.1 58 -0.3 31.4
19:30 1021 30.15 850 25.1 7.2 44.9 59 -0.4 31.3
19:35 1021 30.15 850 25.1 7.1 44.7 59 -0.5 31.1
19:40 1021 30.15 850 25.1 7 44.5 59 -0.6 30.9
19:45 1021 30.15 850 25.1 6.9 44.4 59 -0.7 30.8
19:50 1021 30.15 850 25.1 6.8 44.3 59 -0.6 30.9
19:55 1021 30.15 850 25.1 6.7 44 60 -0.5 31.1
20:00 1021 30.15 850 25.1 6.5 43.8 61 -0.4 31.2
20:05 1021 30.15 850 25.1 6.3 43.4 63 -0.3 31.5
20:10 1021 30.15 850 25.1 6.1 43.1 63 -0.3 31.4
20:15 1021 30.15 850 25.1 6.1 43 63 -0.3 31.4
20:20 1021 30.15 850 25.1 6 42.8 64 -0.2 31.6
20:25 1021 30.15 850 25.1 5.9 42.6 64 -0.3 31.5
20:30 1021 30.15 850 25.1 5.9 42.5 64 -0.3 31.4
20:35 1021 30.15 850 25.1 5.8 42.5 65 -0.3 31.5
20:40 1021 30.15 850 25.1 5.7 42.3 65 -0.3 31.5
20:45 1021 30.15 850 25.1 5.6 42.2 66 -0.3 31.5
20:50 1021 30.15 850 25.1 5.6 42 66 -0.2 31.7
20:55 1021 30.15 850 25.1 5.4 41.8 67 -0.1 31.8
21:00 1021 30.15 851 25.13 5.4 41.7 67 -0.2 31.6
21:05 1021 30.15 851 25.13 5.4 41.8 68 -0.1 31.9
21:10 1021 30.15 851 25.13 5.6 42.1 68 0.1 32.1
21:15 1022 30.18 851 25.13 5.6 42.1 69 0.4 32.7
21:20 1022 30.18 851 25.13 5.7 42.2 69 0.5 32.9
21:25 1021 30.15 851 25.13 5.6 42.1 71 0.7 33.3
21:30 1022 30.18 851 25.13 5.4 41.8 71 0.7 33.2
21:35 1022 30.18 851 25.13 5.3 41.5 71 0.5 33
21:40 1022 30.18 851 25.13 5.2 41.4 71 0.3 32.6
21:45 1022 30.18 851 25.13 5.2 41.4 71 0.4 32.7
21:50 1022 30.18 851 25.13 5.4 41.6 71 0.5 32.9
21:55 1022 30.18 851 25.13 5.4 41.7 71 0.6 33.1
22:00 1022 30.18 851 25.13 5.4 41.7 72 0.7 33.3
22:05 1022 30.18 851 25.13 5.3 41.6 72 0.8 33.4
22:10 1022 30.18 851 25.13 5.3 41.5 73 0.9 33.6
22:15 1022 30.18 851 25.13 5.2 41.4 74 1 33.8
22:20 1022 30.18 851 25.13 5.1 41.3 76 1.2 34.1
22:25 1022 30.18 851 25.13 5.1 41.2 77 1.3 34.4
22:30 1022 30.18 851 25.13 5.1 41.1 77 1.5 34.6
22:35 1022 30.18 851 25.13 5 41 78 1.6 34.9
22:40 1022 30.18 851 25.13 5 41 78 1.6 34.8
22:45 1022 30.18 851 25.13 5 40.9 79 1.6 34.9
22:50 1022 30.18 851 25.13 4.9 40.9 79 1.7 35
22:55 1022 30.18 851 25.13 4.9 40.8 80 1.7 35
23:00 1022 30.18 851 25.13 4.8 40.6 80 1.6 35
23:05 1022 30.18 852 25.16 4.7 40.4 80 1.6 34.9
23:10 1022 30.18 852 25.16 4.6 40.3 80 1.5 34.7
23:15 1022 30.18 852 25.16 4.6 40.3 80 1.4 34.5
23:20 1022 30.18 852 25.16 4.6 40.3 79 1.4 34.5
23:25 1022 30.18 852 25.16 4.6 40.3 79 1.3 34.4
23:30 1022 30.18 852 25.16 4.5 40.2 78 1 33.8
23:35 1022 30.18 852 25.16 4.5 40.1 77 0.8 33.5
23:40 1022 30.18 851 25.13 4.5 40 76 0.6 33.2
23:45 1022 30.18 851 25.13 4.5 40.1 76 0.7 33.3
23:50 1022 30.18 851 25.13 4.4 40 76 0.6 33.1
23:55 1022 30.18 851 25.13 4.4 40 76 0.6 33.1
24:00 1022 30.18 851 25.13 4.4 39.8 77 0.7 33.3